createdAt,value
2019-02-18T00:01:49.979Z,58.62
2019-02-18T00:04:18.420Z,58.79
2019-02-18T00:06:46.885Z,58.87
2019-02-18T00:09:15.377Z,58.85
2019-02-18T00:11:43.894Z,58.99
2019-02-18T00:14:12.323Z,58.96
2019-02-18T00:16:40.777Z,59.08
2019-02-18T00:19:09.303Z,59.14
2019-02-18T00:21:37.781Z,59.16
2019-02-18T00:24:06.208Z,59.26
2019-02-18T00:26:34.655Z,59.40
2019-02-18T00:29:03.055Z,59.53
2019-02-18T00:31:31.505Z,59.64
2019-02-18T00:33:59.933Z,59.72
2019-02-18T00:36:28.408Z,59.86
2019-02-18T00:38:56.887Z,59.89
2019-02-18T00:41:25.448Z,59.95
2019-02-18T00:43:53.860Z,60.00
2019-02-18T00:46:22.321Z,60.02
2019-02-18T00:48:50.739Z,60.04
2019-02-18T00:51:19.170Z,60.04
2019-02-18T00:53:47.596Z,60.03
2019-02-18T00:56:16.055Z,59.86
2019-02-18T00:58:44.534Z,59.91
2019-02-18T01:01:12.997Z,59.96
2019-02-18T01:03:41.448Z,59.70
2019-02-18T01:06:10.055Z,59.80
2019-02-18T01:08:38.683Z,59.73
2019-02-18T01:11:07.193Z,59.59
2019-02-18T01:13:35.783Z,59.64
2019-02-18T01:16:04.274Z,59.58
2019-02-18T01:18:32.731Z,59.59
2019-02-18T01:21:01.141Z,59.67
2019-02-18T01:23:29.590Z,59.74
2019-02-18T01:25:58.021Z,59.86
2019-02-18T01:28:26.470Z,59.74
2019-02-18T01:30:54.895Z,59.90
2019-02-18T01:33:23.543Z,59.87
2019-02-18T01:35:51.962Z,60.06
2019-02-18T01:38:20.403Z,60.15
2019-02-18T01:40:48.831Z,60.34
2019-02-18T01:43:17.292Z,60.28
2019-02-18T01:45:45.704Z,60.29
2019-02-18T01:48:14.123Z,60.43
2019-02-18T01:50:42.655Z,60.50
2019-02-18T01:53:11.169Z,60.74
2019-02-18T01:55:39.599Z,60.84
2019-02-18T01:58:08.029Z,60.84
2019-02-18T02:00:36.745Z,60.90
2019-02-18T02:03:05.371Z,60.93
2019-02-18T02:05:33.820Z,61.06
2019-02-18T02:08:02.232Z,61.12
2019-02-18T02:10:30.669Z,61.14
2019-02-18T02:13:25.114Z,61.16
2019-02-18T02:15:53.707Z,61.31
2019-02-18T02:18:22.126Z,61.21
2019-02-18T02:20:50.623Z,61.34
2019-02-18T02:23:19.027Z,61.45
2019-02-18T02:25:47.557Z,61.50
2019-02-18T02:28:15.969Z,61.52
2019-02-18T02:30:44.477Z,61.46
2019-02-18T02:33:12.887Z,61.44
2019-02-18T02:35:41.335Z,61.47
2019-02-18T02:38:09.768Z,61.53
2019-02-18T02:40:38.336Z,61.70
2019-02-18T02:43:06.826Z,61.75
2019-02-18T02:45:35.261Z,61.70
2019-02-18T02:48:03.762Z,61.90
2019-02-18T02:50:32.223Z,61.89
2019-02-18T02:53:00.622Z,61.92
2019-02-18T02:55:29.070Z,61.89
2019-02-18T02:57:57.527Z,61.92
2019-02-18T03:00:25.946Z,61.91
2019-02-18T03:02:54.427Z,62.10
2019-02-18T03:05:22.912Z,62.19
2019-02-18T03:07:51.371Z,62.23
2019-02-18T03:10:19.803Z,62.22
2019-02-18T03:12:48.251Z,62.28
2019-02-18T03:15:16.671Z,62.07
2019-02-18T03:17:45.202Z,62.03
2019-02-18T03:20:13.966Z,62.09
2019-02-18T03:22:42.410Z,62.06
2019-02-18T03:25:21.531Z,61.96
2019-02-18T03:27:55.545Z,62.03
2019-02-18T03:30:38.850Z,62.06
2019-02-18T03:33:09.938Z,62.20
2019-02-18T03:35:38.342Z,62.25
2019-02-18T03:38:06.789Z,62.18
2019-02-18T03:40:35.732Z,62.24
2019-02-18T03:43:04.226Z,62.41
2019-02-18T03:45:32.642Z,62.51
2019-02-18T03:48:01.096Z,62.55
2019-02-18T03:50:29.523Z,62.51
2019-02-18T03:52:57.985Z,62.56
2019-02-18T03:55:26.565Z,62.71
2019-02-18T03:57:55.187Z,62.65
2019-02-18T04:00:23.670Z,62.69
2019-02-18T04:02:52.119Z,62.87
2019-02-18T04:05:20.615Z,63.06
2019-02-18T04:07:49.090Z,63.07
2019-02-18T04:10:17.545Z,63.15
2019-02-18T04:12:46.031Z,63.21
2019-02-18T04:15:17.850Z,63.29
2019-02-18T04:17:47.019Z,63.26
2019-02-18T04:20:15.483Z,63.24
2019-02-18T04:22:43.905Z,63.23
2019-02-18T04:25:12.358Z,63.37
2019-02-18T04:27:40.763Z,63.37
2019-02-18T04:30:13.601Z,63.36
2019-02-18T04:32:41.284Z,63.39
2019-02-18T04:35:09.810Z,63.44
2019-02-18T04:37:38.261Z,63.53
2019-02-18T04:40:08.408Z,63.50
2019-02-18T04:42:36.833Z,63.50
2019-02-18T04:45:10.227Z,63.53
2019-02-18T04:47:38.649Z,63.38
2019-02-18T04:50:08.323Z,63.43
2019-02-18T04:52:36.736Z,63.32
2019-02-18T04:55:08.403Z,63.46
2019-02-18T04:57:36.825Z,63.54
2019-02-18T05:00:08.519Z,63.63
2019-02-18T05:02:37.073Z,63.68
2019-02-18T05:05:08.076Z,63.59
2019-02-18T05:07:36.509Z,63.64
2019-02-18T05:10:07.995Z,63.61
2019-02-18T05:12:36.441Z,63.64
2019-02-18T05:15:06.711Z,63.59
2019-02-18T05:17:35.162Z,63.73
2019-02-18T05:20:05.028Z,63.75
2019-02-18T05:22:33.460Z,63.72
2019-02-18T05:25:01.945Z,63.83
2019-02-18T05:27:33.364Z,64.04
2019-02-18T05:30:00.683Z,64.06
2019-02-18T05:32:29.138Z,64.13
2019-02-18T05:34:57.554Z,64.24
2019-02-18T05:37:26.007Z,64.34
2019-02-18T05:39:55.460Z,64.20
2019-02-18T05:42:24.081Z,64.19
2019-02-18T05:44:52.497Z,64.31
2019-02-18T05:47:20.943Z,64.35
2019-02-18T05:49:49.356Z,64.27
2019-02-18T05:52:17.807Z,64.30
2019-02-18T05:54:46.214Z,64.31
2019-02-18T05:57:14.659Z,64.24
2019-02-18T05:59:43.094Z,64.30
2019-02-18T06:02:11.544Z,64.45
2019-02-18T06:04:40.034Z,64.43
2019-02-18T06:07:08.563Z,64.50
2019-02-18T06:09:36.967Z,64.61
2019-02-18T06:12:05.574Z,64.72
2019-02-18T06:14:34.007Z,64.75
2019-02-18T06:17:02.913Z,64.75
2019-02-18T06:19:31.371Z,64.83
2019-02-18T06:21:59.973Z,64.91
2019-02-18T06:24:28.488Z,64.88
2019-02-18T06:26:56.992Z,64.88
2019-02-18T06:29:25.450Z,64.97
2019-02-18T06:31:53.892Z,65.02
2019-02-18T06:34:22.412Z,65.03
2019-02-18T06:36:50.833Z,64.97
2019-02-18T06:39:19.347Z,65.00
2019-02-18T06:41:47.766Z,65.04
2019-02-18T06:44:17.866Z,65.07
2019-02-18T06:46:47.930Z,65.11
2019-02-18T06:49:16.445Z,65.28
2019-02-18T06:51:45.040Z,65.30
2019-02-18T06:54:13.564Z,65.37
2019-02-18T06:56:55.412Z,65.42
2019-02-18T06:59:31.137Z,65.48
2019-02-18T07:02:01.378Z,65.44
2019-02-18T07:04:43.124Z,65.50
2019-02-18T07:07:15.887Z,65.54
2019-02-18T07:09:51.199Z,65.57
2019-02-18T07:12:20.778Z,65.60
2019-02-18T07:14:49.277Z,65.67
2019-02-18T07:17:17.713Z,65.71
2019-02-18T07:19:46.182Z,65.72
2019-02-18T07:22:14.670Z,65.76
2019-02-18T07:24:43.122Z,65.81
2019-02-18T07:27:11.579Z,65.85
2019-02-18T07:29:40.004Z,65.93
2019-02-18T07:32:08.464Z,65.93
2019-02-18T07:34:36.901Z,65.85
2019-02-18T07:37:05.519Z,65.90
2019-02-18T07:39:34.008Z,65.92
2019-02-18T07:42:02.478Z,65.87
2019-02-18T07:44:30.925Z,65.83
2019-02-18T07:46:59.417Z,65.81
2019-02-18T07:49:27.836Z,65.84
2019-02-18T07:51:56.523Z,65.78
2019-02-18T07:54:25.030Z,65.76
2019-02-18T07:56:53.550Z,65.75
2019-02-18T07:59:22.100Z,65.77
2019-02-18T08:01:50.554Z,65.88
2019-02-18T08:04:18.991Z,65.87
2019-02-18T08:06:47.430Z,65.95
2019-02-18T08:09:15.932Z,65.89
2019-02-18T08:11:44.467Z,65.83
2019-02-18T08:14:13.050Z,65.92
2019-02-18T08:16:42.393Z,65.82
2019-02-18T08:19:10.816Z,65.83
2019-02-18T08:21:39.413Z,65.73
2019-02-18T08:24:08.008Z,65.75
2019-02-18T08:26:36.515Z,65.85
2019-02-18T08:29:05.028Z,65.88
2019-02-18T08:31:33.607Z,65.84
2019-02-18T08:34:02.084Z,65.82
2019-02-18T08:36:30.511Z,65.75
2019-02-18T08:38:59.043Z,65.68
2019-02-18T08:41:27.442Z,65.57
2019-02-18T08:43:55.979Z,65.46
2019-02-18T08:46:24.523Z,65.53
2019-02-18T08:48:52.941Z,65.56
2019-02-18T08:51:21.373Z,65.56
2019-02-18T08:53:49.833Z,65.61
2019-02-18T08:56:18.267Z,65.56
2019-02-18T08:58:46.723Z,65.55
2019-02-18T09:01:15.229Z,65.57
2019-02-18T09:03:43.683Z,65.55
2019-02-18T09:06:12.161Z,65.54
2019-02-18T09:08:40.625Z,65.27
2019-02-18T09:11:09.046Z,65.27
2019-02-18T09:13:37.576Z,65.34
2019-02-18T09:16:06.066Z,65.30
2019-02-18T09:18:34.524Z,65.14
2019-02-18T09:21:02.937Z,65.14
2019-02-18T09:23:33.036Z,65.08
2019-02-18T09:26:01.622Z,65.07
2019-02-18T09:28:30.254Z,64.96
2019-02-18T09:30:58.800Z,64.89
2019-02-18T09:33:27.242Z,64.61
2019-02-18T09:35:55.713Z,64.46
2019-02-18T09:38:25.496Z,64.46
2019-02-18T09:40:54.123Z,64.32
2019-02-18T09:43:22.671Z,64.06
2019-02-18T09:45:51.308Z,64.06
2019-02-18T09:48:19.747Z,63.61
2019-02-18T09:50:48.211Z,63.20
2019-02-18T09:53:16.634Z,63.29
2019-02-18T09:55:45.077Z,62.89
2019-02-18T09:58:13.513Z,62.67
2019-02-18T10:00:42.052Z,62.30
2019-02-18T10:03:10.642Z,62.11
2019-02-18T10:05:39.089Z,62.14
2019-02-18T10:08:07.511Z,62.03
2019-02-18T10:10:36.295Z,62.03
2019-02-18T10:13:04.893Z,61.27
2019-02-18T10:15:33.344Z,61.49
2019-02-18T10:18:01.787Z,61.55
2019-02-18T10:20:30.336Z,61.42
2019-02-18T10:22:58.857Z,61.42
2019-02-18T10:25:27.316Z,60.19
2019-02-18T10:27:55.845Z,59.96
2019-02-18T10:30:24.326Z,59.96
2019-02-18T10:32:52.741Z,59.91
2019-02-18T10:35:21.182Z,59.60
2019-02-18T10:37:55.012Z,59.36
2019-02-18T10:40:19.851Z,59.32
2019-02-18T10:42:48.291Z,59.08
2019-02-18T10:45:16.890Z,59.01
2019-02-18T10:47:45.360Z,58.61
2019-02-18T10:50:13.924Z,58.30
2019-02-18T10:52:42.385Z,58.18
2019-02-18T10:55:11.668Z,58.02
2019-02-18T10:57:40.462Z,57.75
2019-02-18T11:00:16.523Z,57.88
2019-02-18T11:02:45.511Z,57.51
2019-02-18T11:05:14.095Z,56.83
2019-02-18T11:07:42.671Z,56.11
2019-02-18T11:10:13.538Z,55.73
2019-02-18T11:12:42.040Z,55.09
2019-02-18T11:15:14.808Z,54.75
2019-02-18T11:17:43.578Z,54.47
2019-02-18T11:20:12.976Z,53.87
2019-02-18T11:22:41.536Z,53.18
2019-02-18T11:25:11.540Z,53.18
2019-02-18T11:27:40.104Z,53.06
2019-02-18T11:30:16.694Z,52.73
2019-02-18T11:32:45.116Z,52.31
2019-02-18T11:35:13.923Z,51.44
2019-02-18T11:37:42.361Z,51.06
2019-02-18T11:40:15.658Z,51.28
2019-02-18T11:42:44.171Z,50.93
2019-02-18T11:45:14.362Z,50.02
2019-02-18T11:47:42.839Z,49.60
2019-02-18T11:50:13.766Z,48.97
2019-02-18T11:52:42.188Z,48.51
2019-02-18T11:55:12.616Z,47.92
2019-02-18T11:57:41.430Z,47.04
2019-02-18T12:00:17.304Z,46.68
2019-02-18T12:02:46.298Z,45.90
2019-02-18T12:05:14.731Z,45.93
2019-02-18T12:07:43.278Z,44.84
2019-02-18T12:10:12.978Z,43.97
2019-02-18T12:12:41.822Z,44.37
2019-02-18T12:15:12.993Z,44.39
2019-02-18T12:17:41.432Z,43.39
2019-02-18T12:20:12.739Z,42.61
2019-02-18T12:22:41.242Z,42.27
2019-02-18T12:25:10.650Z,41.64
2019-02-18T12:27:39.557Z,40.85
2019-02-18T12:30:18.730Z,40.10
2019-02-18T12:32:47.227Z,40.17
2019-02-18T12:35:15.654Z,40.91
2019-02-18T12:37:54.653Z,40.43
2019-02-18T12:40:14.658Z,40.19
2019-02-18T12:42:43.159Z,39.60
2019-02-18T12:45:14.428Z,39.24
2019-02-18T12:47:43.192Z,39.22
2019-02-18T12:50:12.483Z,39.10
2019-02-18T12:52:41.016Z,38.96
2019-02-18T12:55:13.009Z,39.03
2019-02-18T12:57:41.549Z,38.84
2019-02-18T13:00:15.040Z,38.44
2019-02-18T13:02:45.043Z,38.24
2019-02-18T13:05:13.994Z,37.55
2019-02-18T13:07:42.588Z,37.56
2019-02-18T13:10:12.018Z,38.11
2019-02-18T13:12:40.938Z,37.96
2019-02-18T13:15:12.274Z,37.77
2019-02-18T13:17:42.705Z,36.98
2019-02-18T13:20:11.114Z,36.78
2019-02-18T13:22:40.030Z,36.61
2019-02-18T13:25:09.615Z,37.02
2019-02-18T13:27:38.047Z,35.98
2019-02-18T13:30:15.477Z,36.01
2019-02-18T13:32:44.018Z,35.94
2019-02-18T13:35:12.687Z,36.08
2019-02-18T13:37:41.128Z,35.96
2019-02-18T13:40:10.185Z,36.17
2019-02-18T13:42:38.766Z,36.40
2019-02-18T13:45:08.445Z,36.03
2019-02-18T13:47:36.908Z,36.07
2019-02-18T13:50:13.330Z,35.94
2019-02-18T13:52:41.759Z,35.88
2019-02-18T13:55:11.868Z,36.24
2019-02-18T13:57:40.830Z,35.75
2019-02-18T14:00:18.495Z,35.28
2019-02-18T14:02:47.168Z,35.24
2019-02-18T14:05:15.975Z,35.18
2019-02-18T14:07:44.532Z,35.24
2019-02-18T14:10:13.558Z,35.25
2019-02-18T14:12:42.116Z,34.98
2019-02-18T14:15:12.679Z,35.21
2019-02-18T14:17:41.240Z,35.74
2019-02-18T14:20:14.291Z,35.22
2019-02-18T14:22:42.855Z,34.45
2019-02-18T14:25:11.930Z,33.89
2019-02-18T14:27:40.485Z,33.16
2019-02-18T14:30:12.003Z,31.75
2019-02-18T14:32:40.520Z,29.64
2019-02-18T14:35:09.498Z,28.88
2019-02-18T14:37:37.914Z,28.00
2019-02-18T14:40:08.067Z,27.77
2019-02-18T14:42:36.581Z,28.49
2019-02-18T14:45:05.752Z,29.84
2019-02-18T14:47:34.272Z,30.87
2019-02-18T14:50:02.771Z,31.55
2019-02-18T14:52:31.432Z,32.63
2019-02-18T14:54:59.944Z,33.34
2019-02-18T14:57:28.738Z,33.79
2019-02-18T14:59:57.292Z,34.27
2019-02-18T15:02:25.758Z,34.85
2019-02-18T15:04:54.332Z,35.29
2019-02-18T15:07:23.089Z,35.68
2019-02-18T15:09:51.653Z,36.11
2019-02-18T15:12:20.811Z,36.55
2019-02-18T15:14:49.310Z,36.94
2019-02-18T15:17:17.820Z,37.36
2019-02-18T15:19:46.265Z,37.83
2019-02-18T15:22:14.801Z,38.28
2019-02-18T15:24:43.240Z,38.76
2019-02-18T15:27:12.085Z,38.94
2019-02-18T15:29:40.527Z,39.32
2019-02-18T15:32:09.047Z,39.69
2019-02-18T15:34:37.494Z,40.27
2019-02-18T15:37:06.085Z,40.60
2019-02-18T15:39:34.522Z,40.90
2019-02-18T15:42:03.104Z,41.14
2019-02-18T15:44:31.639Z,41.47
2019-02-18T15:47:00.164Z,41.56
2019-02-18T15:49:28.791Z,41.96
2019-02-18T15:51:57.458Z,42.37
2019-02-18T15:54:26.016Z,42.26
2019-02-18T15:56:54.530Z,42.66
2019-02-18T15:59:23.279Z,42.89
2019-02-18T16:01:51.716Z,42.73
2019-02-18T16:04:20.244Z,42.96
2019-02-18T16:06:48.757Z,42.94
2019-02-18T16:09:17.217Z,43.07
2019-02-18T16:11:45.826Z,43.34
2019-02-18T16:14:14.642Z,43.59
2019-02-18T16:16:43.113Z,43.99
2019-02-18T16:19:12.035Z,44.42
2019-02-18T16:21:40.471Z,44.43
2019-02-18T16:24:19.344Z,43.74
2019-02-18T16:26:39.161Z,43.08
2019-02-18T16:29:07.619Z,42.78
2019-02-18T16:31:36.146Z,42.80
2019-02-18T16:34:04.944Z,42.34
2019-02-18T16:36:33.490Z,42.36
2019-02-18T16:39:02.329Z,42.23
2019-02-18T16:41:30.859Z,41.63
2019-02-18T16:43:59.318Z,41.78
2019-02-18T16:46:28.030Z,42.12
2019-02-18T16:48:56.809Z,42.21
2019-02-18T16:51:25.265Z,41.86
2019-02-18T16:53:53.692Z,41.97
2019-02-18T16:56:22.156Z,42.01
2019-02-18T16:58:50.576Z,42.02
2019-02-18T17:01:19.516Z,42.71
2019-02-18T17:03:48.075Z,42.22
2019-02-18T17:06:16.540Z,42.27
2019-02-18T17:08:44.929Z,42.63
2019-02-18T17:11:13.425Z,42.36
2019-02-18T17:13:41.853Z,42.56
2019-02-18T17:16:10.375Z,43.22
2019-02-18T17:18:38.799Z,43.26
2019-02-18T17:21:07.268Z,43.41
2019-02-18T17:23:35.720Z,43.03
2019-02-18T17:26:04.161Z,42.82
2019-02-18T17:28:32.723Z,42.84
2019-02-18T17:31:01.254Z,43.04
2019-02-18T17:33:30.150Z,43.12
2019-02-18T17:35:58.560Z,43.59
2019-02-18T17:38:27.055Z,44.07
2019-02-18T17:40:55.953Z,44.48
2019-02-18T17:43:24.395Z,44.97
2019-02-18T17:45:52.976Z,45.34
2019-02-18T17:48:21.444Z,45.67
2019-02-18T17:50:49.895Z,45.95
2019-02-18T17:53:18.342Z,46.41
2019-02-18T17:55:46.767Z,46.56
2019-02-18T17:58:15.207Z,46.82
2019-02-18T18:00:45.397Z,47.05
2019-02-18T18:03:14.031Z,47.18
2019-02-18T18:05:44.619Z,47.41
2019-02-18T18:08:12.997Z,47.49
2019-02-18T18:10:41.426Z,47.66
2019-02-18T18:13:09.960Z,47.85
2019-02-18T18:15:38.424Z,48.04
2019-02-18T18:18:06.870Z,48.16
2019-02-18T18:20:35.734Z,48.28
2019-02-18T18:23:04.252Z,48.42
2019-02-18T18:25:32.791Z,48.55
2019-02-18T18:28:01.252Z,48.68
2019-02-18T18:30:29.779Z,48.82
2019-02-18T18:32:58.232Z,48.89
2019-02-18T18:35:26.683Z,48.89
2019-02-18T18:37:55.399Z,49.02
2019-02-18T18:40:23.870Z,49.11
2019-02-18T18:42:52.286Z,49.13
2019-02-18T18:45:21.177Z,49.19
2019-02-18T18:47:49.619Z,49.32
2019-02-18T18:50:20.484Z,49.40
2019-02-18T18:52:48.969Z,49.50
2019-02-18T18:55:17.739Z,49.58
2019-02-18T18:57:46.294Z,49.69
2019-02-18T19:00:21.740Z,49.75
2019-02-18T19:02:50.186Z,49.83
2019-02-18T19:05:18.989Z,49.84
2019-02-18T19:07:47.438Z,49.93
2019-02-18T19:10:16.903Z,49.95
2019-02-18T19:12:45.396Z,50.12
2019-02-18T19:15:15.956Z,50.12
2019-02-18T19:17:44.473Z,50.11
2019-02-18T19:20:13.528Z,50.21
2019-02-18T19:22:41.962Z,50.33
2019-02-18T19:25:11.703Z,50.44
2019-02-18T19:27:40.129Z,50.58
2019-02-18T19:30:17.029Z,50.67
2019-02-18T19:32:45.997Z,50.76
2019-02-18T19:35:14.558Z,50.90
2019-02-18T19:37:43.057Z,50.90
2019-02-18T19:40:13.438Z,50.97
2019-02-18T19:42:42.016Z,50.99
2019-02-18T19:45:16.667Z,51.11
2019-02-18T19:47:45.097Z,51.20
2019-02-18T19:50:13.706Z,51.20
2019-02-18T19:52:42.383Z,51.27
2019-02-18T19:55:11.924Z,51.39
2019-02-18T19:57:40.458Z,51.43
2019-02-18T20:00:12.043Z,51.50
2019-02-18T20:02:40.849Z,51.62
2019-02-18T20:05:10.487Z,51.77
2019-02-18T20:07:38.961Z,51.95
2019-02-18T20:10:10.282Z,52.11
2019-02-18T20:12:38.933Z,52.21
2019-02-18T20:15:12.736Z,52.29
2019-02-18T20:17:41.194Z,52.46
2019-02-18T20:20:14.319Z,52.56
2019-02-18T20:22:42.965Z,52.70
2019-02-18T20:25:11.548Z,52.35
2019-02-18T20:27:40.002Z,52.88
2019-02-18T20:30:13.972Z,52.97
2019-02-18T20:32:42.488Z,53.06
2019-02-18T20:35:11.472Z,53.13
2019-02-18T20:37:40.052Z,53.26
2019-02-18T20:40:09.961Z,53.40
2019-02-18T20:42:38.950Z,53.15
2019-02-18T20:45:12.788Z,53.15
2019-02-18T20:47:41.407Z,53.64
2019-02-18T20:50:11.679Z,53.70
2019-02-18T20:52:40.218Z,53.80
2019-02-18T20:55:15.672Z,53.96
2019-02-18T20:57:44.173Z,53.95
2019-02-18T21:00:20.248Z,53.95
2019-02-18T21:02:48.980Z,53.96
2019-02-18T21:05:17.506Z,54.10
2019-02-18T21:07:46.042Z,54.01
2019-02-18T21:10:17.710Z,54.22
2019-02-18T21:12:46.138Z,54.49
2019-02-18T21:15:14.798Z,54.41
2019-02-18T21:17:43.319Z,54.41
2019-02-18T21:20:13.307Z,54.33
2019-02-18T21:22:41.805Z,54.35
2019-02-18T21:25:10.909Z,54.40
2019-02-18T21:27:39.424Z,54.42
2019-02-18T21:30:10.915Z,54.46
2019-02-18T21:32:40.013Z,54.54
2019-02-18T21:35:08.735Z,54.54
2019-02-18T21:37:37.254Z,54.58
2019-02-18T21:40:10.542Z,54.66
2019-02-18T21:42:39.062Z,54.75
2019-02-18T21:45:13.465Z,54.84
2019-02-18T21:47:41.961Z,54.94
2019-02-18T21:50:11.399Z,54.96
2019-02-18T21:52:40.433Z,55.13
2019-02-18T21:55:10.478Z,55.28
2019-02-18T21:57:39.000Z,55.38
2019-02-18T22:00:17.279Z,55.46
2019-02-18T22:02:46.056Z,55.51
2019-02-18T22:05:14.830Z,55.60
2019-02-18T22:07:43.333Z,55.68
2019-02-18T22:10:11.825Z,55.76
2019-02-18T22:12:40.298Z,55.84
2019-02-18T22:15:11.047Z,55.93
2019-02-18T22:17:39.573Z,56.00
2019-02-18T22:20:10.507Z,56.20
2019-02-18T22:22:39.153Z,56.29
2019-02-18T22:25:11.933Z,56.39
2019-02-18T22:27:40.464Z,56.47
2019-02-18T22:30:11.693Z,56.70
2019-02-18T22:32:40.168Z,56.79
2019-02-18T22:35:09.113Z,56.84
2019-02-18T22:37:37.931Z,56.85
2019-02-18T22:40:08.618Z,56.96
2019-02-18T22:42:37.072Z,57.10
2019-02-18T22:45:07.247Z,57.13
2019-02-18T22:47:35.951Z,57.27
2019-02-18T22:50:04.820Z,57.34
2019-02-18T22:52:33.738Z,57.43
2019-02-18T22:55:02.274Z,57.51
2019-02-18T22:57:30.915Z,57.62
2019-02-18T22:59:59.515Z,57.70
2019-02-18T23:02:28.075Z,57.85
2019-02-18T23:04:56.598Z,57.89
2019-02-18T23:07:25.046Z,57.94
2019-02-18T23:09:54.033Z,58.00
2019-02-18T23:12:22.724Z,58.10
2019-02-18T23:14:51.372Z,58.20
2019-02-18T23:17:19.954Z,58.14
2019-02-18T23:19:48.480Z,58.18
2019-02-18T23:22:16.969Z,58.25
2019-02-18T23:24:45.511Z,58.23
2019-02-18T23:27:14.015Z,58.25
2019-02-18T23:29:42.651Z,58.23
2019-02-18T23:32:11.151Z,58.28
2019-02-18T23:34:39.725Z,58.38
2019-02-18T23:37:08.317Z,58.60
2019-02-18T23:39:36.937Z,58.62
2019-02-18T23:42:05.512Z,58.57
2019-02-18T23:44:34.046Z,58.53
2019-02-18T23:47:02.703Z,58.54
2019-02-18T23:49:31.213Z,58.55
2019-02-18T23:51:59.738Z,58.59
2019-02-18T23:54:28.197Z,58.65
2019-02-18T23:56:56.707Z,58.64
2019-02-18T23:59:25.381Z,58.66
